Skip Navigation LinksHome page > Weather > Current weather Skip Navigation Links

Current Weather

Kenosha Regional, Kenosha, Wis.

For information only: do not use for flight planning or navigation.
Latest weather
Observation time Tuesday, September 28, 2021 5:53 AM CDT
Local time Tuesday, September 28, 2021 6:12 AM CDT
Flight conditions Visual Meteorological Conditions
Winds
Wind direction North-Northeast (20°)
Wind speed 6 mph
Visibility 10 mi.
Sky condition
Ceiling unlimited
Sky clear
Temperature 54°F
Dewpoint 51°F
Altimeter 29.99 in.Hg
Derived measurements
Relative humidity 90%
Density altitude 511 ft.
Sea-level pressure 29.99 in.Hg
Remarks
Fully automated report.
Automated weather observing station with precipitation discriminator.
METAR KENW 281053Z AUTO 02005KT 10SM CLR 12/11 A2999 RMK AO2 SLP157 T01220106

Settings

Location code

InnerDrive.Weather 4.0.6770.0 Release CLR 4.0.30319.42000
Copyright ©2018 Inner Drive Technology. All rights reserved. Portions Copyright ©1986-2018 David Braverman.

Find weather

Site navigation


Skip Navigation Links

Place info

Page info

PayPal - The safer, easier way to pay online!

Return home.

Copyright ©2021 Inner Drive Technology. Purveyors of fine, hand-crafted computer software. Page printed 2021-09-28T11:12:15 UTC.